Princeton Airport
CYDC : now visible

Airfield :











YOU CAN JOIN US ON...

 
LOGIN :

Register | Disclaimer

   EN    FR    IT 

 









Legend :    VFR   Marginal VFR   IFR   Intensive IFR   Very Intensive IFR
Visi :
Ceiling :
>= 8 km
>= 3000ft
5 to 8 km
1000 to 3000 ft
1500m to 5 km
500 to 1000 ft
800 to 1500m
200 to 500 ft
< 800m
< 200 ft
Symbols :   Thunderstorms  Fog  Heavy snow  Heavy precipitations  Wind > 20 kt







- Airport Elevation : 2298 ft


CYDC - Princeton

CURRENT METAR :
  • 250100Z 28010G18KT 250V320 25SM SCT064 BKN270 18/04 A2990 RMK SC4CC3 LAST STFD OB/NEXT 25 1300UTC SLP120 DENSITY ALT 3300FT

EXPIRED METARs :
  • 250000Z 29007KT 240V330 25SM FEW046 BKN067 BKN310 19/04 A2989 RMK SC1AC4CI2 SLP118 DENSITY ALT 3400FT
  • 242319Z 29008KT 240V310 25SM -RA FEW035 BKN065CB BKN310 18/05 A2990 RMK SC2CB4CI1 SLP121 DENSITY ALT 3300FT
  • 242300Z 31006KT 230V010 25SM FEW031 BKN058CB BKN310 19/04 A2990 RMK SC2CB4CI1 CI TR SLP122 DENSITY ALT 3300FT

TAF N/A
CZVR FIR / North America



MET'MAP, your aeronautical weather chart ! - Copyright ORBIFLY December 2007 - Disclaimer

ORBIFLY MET'MAP TEAM :

Programming & Development : Alexandra Zaïnal
Concept & Development : Baudouin d'Aumeries
Co-Development & Prog : Marc-Olivier Méhu
Technical & hardware support : Manuel Goepfert

Contact : metmap@orbifly.com




SOURCES & CREDITS :

   NOAA       Earth
Advisory